Time;durP1;ratioP1;P1;durP2;ratioP2;P2;SDS_P1;SDS_P2;PMS_P1;PMS_P2;Temp;Humidity;BMP_temperature;BMP_pressure;BME280_temperature;BME280_humidity;BME280_pressure;Samples;Min_cycle;Max_cycle;Signal;HPM_P1;HPM_P2
2022/01/29 00:01:53;;;;;;;22.25;8.73;;;;;;;13.67;48.74;102847.03;5053724;28;20512;-63
2022/01/29 00:04:18;;;;;;;23.55;8.73;;;;;;;13.67;48.01;102836.25;5054988;28;20057;-63
2022/01/29 00:06:44;;;;;;;22.20;10.65;;;;;;;13.64;49.09;102820.31;5053504;28;20032;-62
2022/01/29 00:09:13;;;;;;;23.58;9.52;;;;;;;13.69;47.78;102824.41;5054860;28;20486;-62
2022/01/29 00:11:40;;;;;;;21.02;8.68;;;;;;;13.70;48.88;102811.81;5054738;28;20029;-62
2022/01/29 00:14:08;;;;;;;28.02;10.82;;;;;;;13.70;49.14;102809.13;5054788;28;20038;-63
2022/01/29 00:16:34;;;;;;;25.92;10.68;;;;;;;13.69;49.31;102802.00;5054591;28;20021;-63
2022/01/29 00:18:59;;;;;;;22.92;9.52;;;;;;;13.71;48.94;102795.53;5053425;28;20058;-62
2022/01/29 00:21:24;;;;;;;26.67;10.10;;;;;;;13.71;48.25;102787.47;5054629;28;20025;-62
2022/01/29 00:23:50;;;;;;;19.45;8.38;;;;;;;13.64;48.64;102779.91;5054687;28;20039;-63
2022/01/29 00:26:19;;;;;;;24.38;9.25;;;;;;;13.68;48.21;102778.75;5054188;28;20025;-63
2022/01/29 00:28:45;;;;;;;23.90;9.02;;;;;;;13.69;48.57;102777.75;5054301;28;20029;-62
2022/01/29 00:31:10;;;;;;;26.90;9.18;;;;;;;13.65;48.19;102760.09;5054519;28;20029;-62
2022/01/29 00:33:38;;;;;;;20.70;8.82;;;;;;;13.68;48.23;102763.44;5054376;28;20029;-62
2022/01/29 00:36:04;;;;;;;25.13;9.27;;;;;;;13.67;48.20;102767.09;5056934;28;20021;-62
2022/01/29 00:38:29;;;;;;;21.45;9.00;;;;;;;13.68;48.60;102766.13;5074176;28;20025;-63
2022/01/29 00:40:55;;;;;;;23.85;9.35;;;;;;;13.64;49.39;102774.53;5056236;28;20043;-63
2022/01/29 00:43:20;;;;;;;26.23;8.80;;;;;;;13.70;48.69;102771.44;5074327;28;20032;-62
2022/01/29 00:45:45;;;;;;;27.85;9.88;;;;;;;13.70;48.71;102774.13;5074124;28;20067;-62
2022/01/29 00:48:11;;;;;;;21.58;8.23;;;;;;;13.71;49.00;102775.81;5074124;28;20032;-62
2022/01/29 00:50:36;;;;;;;18.23;8.35;;;;;;;13.70;48.42;102766.03;5074105;28;20024;-62
2022/01/29 00:53:01;;;;;;;15.85;7.50;;;;;;;13.69;48.26;102762.47;5073957;28;20472;-62
2022/01/29 00:55:27;;;;;;;21.17;8.45;;;;;;;13.61;48.47;102758.56;5073424;28;20032;-62
2022/01/29 00:57:52;;;;;;;19.00;8.30;;;;;;;13.66;49.10;102756.41;5074359;28;20028;-63
2022/01/29 01:00:18;;;;;;;22.40;8.93;;;;;;;13.68;49.46;102759.91;5056253;28;20081;-62
2022/01/29 01:02:43;;;;;;;19.95;8.05;;;;;;;13.67;48.87;102758.16;5073969;28;20052;-63
2022/01/29 01:05:09;;;;;;;15.77;8.00;;;;;;;13.69;49.19;102750.84;5056497;28;20024;-62
2022/01/29 01:07:34;;;;;;;18.77;8.05;;;;;;;13.67;48.67;102752.78;5055982;28;20028;-62
2022/01/29 01:10:00;;;;;;;22.02;9.13;;;;;;;13.67;49.16;102747.38;5073806;28;20028;-62
2022/01/29 01:12:25;;;;;;;20.17;8.32;;;;;;;13.71;48.07;102751.59;5073797;28;20028;-63
2022/01/29 01:14:51;;;;;;;24.45;8.85;;;;;;;13.73;48.85;102746.97;5073815;28;20028;-62
2022/01/29 01:17:18;;;;;;;19.50;7.80;;;;;;;13.72;48.95;102732.66;5055668;28;20471;-62
2022/01/29 01:19:44;;;;;;;18.63;8.93;;;;;;;13.73;47.99;102737.09;5056205;28;20496;-62
2022/01/29 01:22:09;;;;;;;15.95;7.38;;;;;;;13.76;49.21;102741.41;5055979;28;20028;-62
2022/01/29 01:24:34;;;;;;;19.30;8.75;;;;;;;13.79;48.14;102730.41;5073767;28;20151;-62
2022/01/29 01:27:00;;;;;;;18.55;6.63;;;;;;;13.75;48.42;102728.88;5073820;28;20390;-62
2022/01/29 01:29:25;;;;;;;17.70;7.30;;;;;;;13.75;48.25;102732.44;5073859;28;20148;-62
2022/01/29 01:31:51;;;;;;;20.17;7.28;;;;;;;13.76;49.06;102733.31;5073761;28;20039;-62
2022/01/29 01:34:20;;;;;;;20.58;7.20;;;;;;;13.76;49.37;102730.63;5073664;28;20080;-62
2022/01/29 01:36:51;;;;;;;18.27;7.22;;;;;;;13.75;49.23;102712.72;5073406;28;20032;-61
2022/01/29 01:39:21;;;;;;;17.23;6.78;;;;;;;13.79;49.37;102725.03;5073832;28;20471;-62
2022/01/29 01:41:57;;;;;;;17.55;8.07;;;;;;;13.79;48.36;102711.56;5073948;28;20049;-62
2022/01/29 01:44:23;;;;;;;16.15;7.60;;;;;;;13.80;48.16;102705.19;5056017;28;20032;-62
2022/01/29 01:46:48;;;;;;;19.65;7.43;;;;;;;13.80;49.21;102695.28;5055563;28;20025;-62
2022/01/29 01:49:16;;;;;;;15.07;6.82;;;;;;;13.80;48.40;102681.81;5073457;28;20039;-62
2022/01/29 01:51:42;;;;;;;17.83;8.80;;;;;;;13.79;49.03;102684.63;5073669;28;20047;-62
2022/01/29 01:54:08;;;;;;;15.27;7.57;;;;;;;13.77;49.20;102673.06;5038757;28;20035;-62
2022/01/29 01:56:33;;;;;;;21.20;8.60;;;;;;;13.76;48.22;102666.81;5073303;28;20108;-62
2022/01/29 01:58:58;;;;;;;24.95;6.78;;;;;;;13.76;48.91;102660.59;5055339;28;20032;-63
2022/01/29 02:01:24;;;;;;;17.73;7.78;;;;;;;13.77;48.22;102656.91;5073310;28;20024;-62
2022/01/29 02:03:49;;;;;;;15.85;7.22;;;;;;;13.77;48.86;102656.91;5073498;28;20024;-63
2022/01/29 02:06:15;;;;;;;15.60;6.55;;;;;;;13.76;48.41;102655.22;5075684;28;20040;-62
2022/01/29 02:08:40;;;;;;;20.55;8.07;;;;;;;13.76;48.29;102644.44;5077325;28;20024;-63
2022/01/29 02:11:06;;;;;;;17.88;7.95;;;;;;;13.74;48.29;102646.34;5077466;28;20158;-62
2022/01/29 02:13:32;;;;;;;16.48;7.95;;;;;;;13.72;48.51;102640.22;5077092;28;20028;-62
2022/01/29 02:15:58;;;;;;;15.65;7.05;;;;;;;13.72;48.29;102645.59;5059060;28;20041;-62
2022/01/29 02:18:23;;;;;;;17.20;6.95;;;;;;;13.71;48.45;102635.78;5059221;28;20026;-62
2022/01/29 02:20:49;;;;;;;14.70;6.32;;;;;;;13.71;48.25;102638.47;5077368;28;20179;-62
2022/01/29 02:23:17;;;;;;;18.85;7.15;;;;;;;13.71;49.48;102646.56;5077012;28;20065;-62
2022/01/29 02:25:47;;;;;;;21.35;7.22;;;;;;;13.70;48.46;102632.25;5077246;28;20111;-63
2022/01/29 02:28:19;;;;;;;15.93;6.97;;;;;;;13.67;49.60;102623.50;5076930;28;20538;-62
2022/01/29 02:30:47;;;;;;;19.13;7.47;;;;;;;13.67;48.72;102626.22;5077331;28;20029;-62
2022/01/29 02:33:15;;;;;;;19.77;6.50;;;;;;;13.64;49.45;102623.72;5058959;28;20105;-61
2022/01/29 02:35:43;;;;;;;15.85;7.07;;;;;;;13.64;48.58;102607.56;5058687;28;20076;-62
2022/01/29 02:38:09;;;;;;;15.95;6.75;;;;;;;13.62;49.47;102606.81;5076788;28;20038;-62
2022/01/29 02:40:39;;;;;;;15.88;6.60;;;;;;;13.62;49.10;102604.13;5058772;28;20036;-62
2022/01/29 02:43:20;;;;;;;18.92;6.75;;;;;;;13.63;49.95;102605.81;5059804;28;20036;-62
2022/01/29 02:45:46;;;;;;;15.10;7.25;;;;;;;13.60;49.18;102611.41;5076594;28;20056;-63
2022/01/29 02:48:12;;;;;;;14.63;6.95;;;;;;;13.60;49.75;102611.41;5076431;28;20029;-62
2022/01/29 02:50:38;;;;;;;14.15;6.47;;;;;;;13.62;49.47;102604.13;5076449;28;20398;-62
2022/01/29 02:53:04;;;;;;;16.15;6.28;;;;;;;13.60;49.03;102600.66;5076613;28;20028;-62
2022/01/29 02:55:30;;;;;;;15.65;5.95;;;;;;;13.58;49.96;102602.59;5076014;28;20034;-62
2022/01/29 02:57:56;;;;;;;18.50;6.53;;;;;;;13.56;50.28;102601.84;5058297;28;20025;-63
2022/01/29 03:00:22;;;;;;;13.93;6.07;;;;;;;13.54;49.58;102590.31;5076429;28;20112;-62
2022/01/29 03:02:47;;;;;;;15.35;6.55;;;;;;;13.55;50.05;102587.50;5058300;28;20513;-62
2022/01/29 03:05:13;;;;;;;21.75;6.20;;;;;;;13.56;49.89;102591.06;5058297;28;20038;-62
2022/01/29 03:07:38;;;;;;;16.25;6.32;;;;;;;13.55;49.42;102590.22;5058250;28;20059;-63
2022/01/29 03:10:05;;;;;;;15.88;6.38;;;;;;;13.50;49.39;102572.66;5076233;28;20466;-62
2022/01/29 03:12:30;;;;;;;16.08;7.47;;;;;;;13.55;49.36;102575.88;5076202;28;20073;-62
2022/01/29 03:14:56;;;;;;;15.93;6.03;;;;;;;13.53;49.34;102572.44;5075831;28;20029;-62
2022/01/29 03:17:21;;;;;;;12.45;5.60;;;;;;;13.54;50.56;102574.16;5040551;28;20371;-62
2022/01/29 03:19:47;;;;;;;13.00;6.55;;;;;;;13.56;49.99;102577.59;5076044;28;20389;-62
2022/01/29 03:22:12;;;;;;;13.38;6.38;;;;;;;13.57;50.19;102573.97;5076091;28;20032;-62
2022/01/29 03:24:37;;;;;;;16.17;6.78;;;;;;;13.57;49.77;102568.56;5075749;28;20148;-62
2022/01/29 03:27:03;;;;;;;19.02;7.38;;;;;;;13.57;49.35;102568.56;5075598;28;20032;-62
2022/01/29 03:29:28;;;;;;;14.80;6.55;;;;;;;13.58;49.79;102572.97;5058192;28;20025;-63
2022/01/29 03:31:53;;;;;;;14.63;6.13;;;;;;;13.60;49.51;102568.34;5057705;28;20039;-62
2022/01/29 03:34:19;;;;;;;15.48;7.30;;;;;;;13.61;49.54;102576.31;5037852;28;20055;-63
2022/01/29 03:36:44;;;;;;;13.82;6.50;;;;;;;13.62;49.45;102575.38;5038071;28;20527;-63
2022/01/29 03:39:10;;;;;;;16.98;6.30;;;;;;;13.63;50.80;102562.75;5055413;28;20502;-62
2022/01/29 03:41:36;;;;;;;14.65;6.20;;;;;;;13.63;49.45;102558.22;5055641;28;20053;-62
2022/01/29 03:44:05;;;;;;;14.98;6.85;;;;;;;13.61;50.85;102554.78;5055533;28;20056;-62
2022/01/29 03:46:32;;;;;;;11.85;5.78;;;;;;;13.60;50.20;102546.78;5055396;28;20025;-62
2022/01/29 03:48:57;;;;;;;15.63;6.82;;;;;;;13.62;49.85;102550.28;5055567;28;20032;-62
2022/01/29 03:51:22;;;;;;;16.13;6.07;;;;;;;13.61;51.11;102540.44;5055275;28;20410;-62
2022/01/29 03:53:48;;;;;;;15.93;6.93;;;;;;;13.63;50.79;102541.19;5055461;28;20391;-62
2022/01/29 03:56:13;;;;;;;16.05;6.35;;;;;;;13.62;49.80;102531.41;5055186;28;20485;-62
2022/01/29 03:58:39;;;;;;;14.82;6.80;;;;;;;13.62;51.02;102534.13;5053821;28;20142;-62
2022/01/29 04:01:04;;;;;;;14.90;6.78;;;;;;;13.63;49.89;102525.03;5055098;28;20063;-62
2022/01/29 04:03:29;;;;;;;15.43;5.68;;;;;;;13.64;50.42;102521.38;5053728;28;20036;-63
2022/01/29 04:05:55;;;;;;;10.45;5.50;;;;;;;13.62;50.83;102526.91;5055220;28;20536;-62
2022/01/29 04:08:20;;;;;;;15.18;6.15;;;;;;;13.61;49.97;102527.84;5053642;28;20526;-63
2022/01/29 04:10:47;;;;;;;12.65;5.47;;;;;;;13.59;51.62;102518.16;5055148;28;20021;-62
2022/01/29 04:13:14;;;;;;;9.68;5.60;;;;;;;13.62;51.25;102517.97;5054997;28;20025;-62
2022/01/29 04:15:40;;;;;;;6.95;4.63;;;;;;;13.61;51.10;102513.53;5053450;28;20032;-62
2022/01/29 04:18:05;;;;;;;9.60;4.47;;;;;;;13.61;50.24;102519.78;5054819;28;20021;-62
2022/01/29 04:20:31;;;;;;;10.80;4.82;;;;;;;13.59;50.50;102507.41;5055187;28;20133;-62
2022/01/29 04:22:57;;;;;;;9.40;4.18;;;;;;;13.61;50.75;102516.22;5053159;28;20020;-62
2022/01/29 04:25:23;;;;;;;7.75;4.30;;;;;;;13.61;50.77;102521.59;5054649;28;20112;-62
2022/01/29 04:27:49;;;;;;;10.38;4.10;;;;;;;13.61;51.33;102517.09;5054875;28;20067;-62
2022/01/29 04:30:27;;;;;;;10.23;4.07;;;;;;;13.64;51.66;102513.31;5053833;28;20476;-62
2022/01/29 04:35:19;;;;;;;9.40;4.10;;;;;;;13.65;51.84;102523.97;5068435;28;20060;-62
2022/01/29 04:37:44;;;;;;;6.18;3.58;;;;;;;13.65;50.92;102517.75;5074452;28;20051;-62
2022/01/29 04:40:11;;;;;;;8.20;4.07;;;;;;;13.66;51.58;102514.06;5074150;28;20474;-62
2022/01/29 04:42:36;;;;;;;9.93;4.10;;;;;;;13.69;51.29;102505.78;5074121;28;20032;-62
2022/01/29 04:45:02;;;;;;;10.00;4.38;;;;;;;13.71;50.54;102501.13;5074328;28;20106;-61
2022/01/29 04:47:27;;;;;;;7.95;4.10;;;;;;;13.71;50.81;102498.44;5074375;28;20420;-62
2022/01/29 04:49:53;;;;;;;6.25;3.53;;;;;;;13.74;51.55;102506.28;5074219;28;20490;-62
2022/01/29 04:52:18;;;;;;;12.35;4.53;;;;;;;13.73;50.67;102493.81;5074296;28;20036;-62
2022/01/29 04:54:43;;;;;;;8.88;4.22;;;;;;;13.75;51.95;102502.66;5056186;28;20067;-63
2022/01/29 04:57:09;;;;;;;8.88;3.80;;;;;;;13.76;50.63;102505.22;5074071;28;20036;-62
2022/01/29 04:59:34;;;;;;;7.88;3.20;;;;;;;13.77;51.55;102492.63;5056334;28;20083;-62
2022/01/29 05:01:59;;;;;;;5.85;3.08;;;;;;;13.75;51.65;102486.50;5064260;28;20037;-62
2022/01/29 05:04:25;;;;;;;5.88;3.33;;;;;;;13.75;51.38;102497.25;5067519;28;20029;-62
2022/01/29 05:06:50;;;;;;;6.55;3.40;;;;;;;13.76;50.62;102488.22;5073826;28;20414;-62
2022/01/29 05:09:16;;;;;;;6.90;3.67;;;;;;;13.77;50.69;102484.53;5062880;28;20118;-62
2022/01/29 05:11:45;;;;;;;7.15;3.05;;;;;;;13.80;50.93;102489.72;5019484;28;20501;-62
2022/01/29 05:14:18;;;;;;;6.28;3.63;;;;;;;13.80;51.09;102479.81;5053926;28;20474;-62
2022/01/29 05:27:20;;;;;;;6.30;3.30;;;;;;;13.88;51.43;102461.25;5053405;28;20052;-62
2022/01/29 05:29:46;;;;;;;7.35;3.35;;;;;;;13.86;51.58;102467.72;5053490;28;20028;-62
2022/01/29 05:32:15;;;;;;;6.85;3.53;;;;;;;13.88;52.09;102460.38;5053824;28;20057;-62
2022/01/29 05:34:40;;;;;;;6.72;3.78;;;;;;;13.91;51.55;102460.16;5036398;28;20049;-63
2022/01/29 05:37:06;;;;;;;7.35;4.10;;;;;;;13.96;51.38;102464.25;5053697;28;20036;-61
2022/01/29 05:39:31;;;;;;;5.72;3.83;;;;;;;13.98;51.33;102461.47;5053384;28;20064;-63
2022/01/29 05:41:58;;;;;;;5.00;3.00;;;;;;;14.04;51.50;102465.56;5071091;28;20494;-62
2022/01/29 05:44:24;;;;;;;10.18;4.18;;;;;;;14.04;51.16;102450.25;5073584;28;20024;-62
2022/01/29 05:46:49;;;;;;;5.43;3.72;;;;;;;14.06;51.64;102459.06;5073793;28;20028;-62
2022/01/29 05:49:15;;;;;;;5.78;3.38;;;;;;;14.10;50.67;102460.56;5073527;28;20120;-63
2022/01/29 05:51:40;;;;;;;4.45;2.65;;;;;;;14.13;50.71;102460.34;5073218;28;20029;-62
2022/01/29 05:54:06;;;;;;;7.03;3.92;;;;;;;14.16;52.25;102453.84;5073402;28;20060;-62
2022/01/29 05:56:31;;;;;;;8.32;4.28;;;;;;;14.16;51.87;102452.03;5073449;28;20029;-62
2022/01/29 05:58:57;;;;;;;5.53;3.65;;;;;;;14.19;51.53;102457.19;5073544;28;20227;-63
2022/01/29 06:01:22;;;;;;;7.85;3.85;;;;;;;14.18;52.28;102441.97;5073707;28;20071;-62
2022/01/29 06:03:48;;;;;;;5.45;3.03;;;;;;;14.08;51.45;102423.91;5073343;28;20032;-62
2022/01/29 06:06:14;;;;;;;4.97;2.92;;;;;;;14.20;51.16;102456.22;5055350;28;20060;-62
2022/01/29 06:08:39;;;;;;;5.15;3.03;;;;;;;14.20;52.30;102449.97;5073312;28;20036;-63
2022/01/29 06:11:05;;;;;;;5.07;3.13;;;;;;;14.20;52.27;102434.66;5055070;28;20024;-62
2022/01/29 06:13:30;;;;;;;5.47;3.28;;;;;;;14.23;51.83;102439.84;5073121;28;20527;-62
2022/01/29 06:15:56;;;;;;;6.85;3.38;;;;;;;14.25;51.81;102437.88;5073169;28;20473;-62
2022/01/29 06:18:23;;;;;;;4.88;3.13;;;;;;;14.28;51.18;102434.97;5073368;28;20055;-62
2022/01/29 06:20:50;;;;;;;6.25;3.40;;;;;;;14.30;52.09;102433.00;5055748;28;20485;-62
2022/01/29 06:23:18;;;;;;;5.22;2.83;;;;;;;14.30;51.04;102430.31;5073216;28;20032;-62
2022/01/29 06:25:43;;;;;;;4.57;3.00;;;;;;;14.34;51.81;102423.75;5055613;28;20042;-62
2022/01/29 06:28:09;;;;;;;5.78;3.30;;;;;;;14.37;52.13;102423.53;5073472;28;20474;-62
2022/01/29 06:30:35;;;;;;;4.65;2.83;;;;;;;14.40;52.14;102431.41;5073145;28;20028;-62
2022/01/29 06:33:08;;;;;;;6.53;3.95;;;;;;;14.42;51.60;102434.84;5038563;28;20031;-62
2022/01/29 06:35:35;;;;;;;5.53;3.35;;;;;;;14.43;50.77;102425.75;5068934;28;20049;-62
2022/01/29 06:38:00;;;;;;;6.07;3.40;;;;;;;14.42;51.49;102424.03;5053084;28;20106;-62
2022/01/29 06:40:25;;;;;;;7.25;3.17;;;;;;;14.44;52.12;102432.88;5035299;28;20517;-62
2022/01/29 06:42:51;;;;;;;5.22;3.05;;;;;;;14.42;51.32;102413.25;5053140;28;20052;-62
2022/01/29 06:45:16;;;;;;;4.75;2.80;;;;;;;14.43;51.15;102431.13;5052815;28;20029;-62
2022/01/29 06:47:41;;;;;;;6.13;3.30;;;;;;;14.45;51.14;102421.13;5053025;28;20032;-62
2022/01/29 06:50:07;;;;;;;8.27;3.38;;;;;;;14.47;52.35;102415.59;5052916;28;20017;-63
2022/01/29 06:52:33;;;;;;;8.45;3.53;;;;;;;14.47;50.87;102411.06;5054325;28;20429;-62
2022/01/29 06:54:58;;;;;;;7.72;4.13;;;;;;;14.49;51.58;102416.34;5038678;28;20096;-62
2022/01/29 06:57:23;;;;;;;7.95;3.55;;;;;;;14.52;51.17;102414.28;5038388;28;20024;-62
2022/01/29 06:59:49;;;;;;;7.13;3.95;;;;;;;14.53;51.34;102402.53;5056301;28;20021;-62
2022/01/29 07:02:14;;;;;;;6.90;3.47;;;;;;;14.54;51.04;102406.91;5056236;28;20090;-62
2022/01/29 07:04:39;;;;;;;6.85;3.60;;;;;;;14.54;51.12;102396.13;5056240;28;20029;-62
2022/01/29 07:07:05;;;;;;;7.43;3.80;;;;;;;14.53;52.39;102389.03;5056125;28;20029;-62
2022/01/29 07:09:30;;;;;;;6.47;3.40;;;;;;;14.53;51.81;102391.75;5056069;28;20032;-62
2022/01/29 07:11:59;;;;;;;6.63;3.70;;;;;;;14.55;51.82;102400.56;5056143;28;20057;-62
2022/01/29 07:14:25;;;;;;;7.20;3.58;;;;;;;14.55;52.50;102400.56;5038192;28;20033;-62
2022/01/29 07:16:50;;;;;;;8.38;4.03;;;;;;;14.56;51.45;102412.22;5056160;28;20463;-62
2022/01/29 07:19:15;;;;;;;9.80;4.22;;;;;;;14.58;51.81;102403.03;5038088;28;20475;-63
2022/01/29 07:21:41;;;;;;;9.25;3.58;;;;;;;14.62;52.14;102397.41;5038194;28;20025;-62
2022/01/29 07:24:06;;;;;;;7.30;3.85;;;;;;;14.65;51.25;102399.88;5058345;28;20036;-62
2022/01/29 07:26:32;;;;;;;7.43;4.25;;;;;;;14.61;51.76;102391.16;5061951;28;20491;-62
2022/01/29 07:28:58;;;;;;;6.20;3.38;;;;;;;14.63;52.61;102389.19;5064030;28;20028;-63
2022/01/29 07:31:23;;;;;;;5.45;3.67;;;;;;;14.69;52.43;102395.94;5062430;28;20036;-63
2022/01/29 07:33:49;;;;;;;6.90;4.28;;;;;;;14.69;50.98;102390.56;5064828;28;20391;-63
2022/01/29 07:36:14;;;;;;;7.55;4.00;;;;;;;14.68;52.41;102388.84;5045370;28;20056;-63
2022/01/29 07:38:40;;;;;;;7.78;3.72;;;;;;;14.70;52.28;102386.88;5066183;28;20479;-63
2022/01/29 07:41:05;;;;;;;7.70;3.92;;;;;;;14.71;52.47;102377.84;5075442;28;20044;-63
2022/01/29 07:43:31;;;;;;;7.28;3.92;;;;;;;14.74;51.37;102378.44;5057952;28;20021;-63
2022/01/29 07:45:56;;;;;;;8.13;4.40;;;;;;;14.74;51.79;102366.81;5075408;28;20467;-62
2022/01/29 07:48:21;;;;;;;5.95;3.25;;;;;;;14.81;52.11;102376.13;5075334;28;20032;-63
2022/01/29 07:50:47;;;;;;;5.97;3.60;;;;;;;14.83;52.48;102369.63;5057655;28;20051;-63
2022/01/29 07:53:12;;;;;;;8.02;4.03;;;;;;;14.86;52.38;102365.84;5057449;28;20043;-63
2022/01/29 07:55:38;;;;;;;7.65;3.83;;;;;;;14.84;51.40;102360.56;5057373;28;20021;-63
2022/01/29 07:58:07;;;;;;;7.82;3.60;;;;;;;14.87;52.67;102381.94;5040670;28;20425;-63
2022/01/29 08:00:33;;;;;;;6.57;4.00;;;;;;;14.90;51.46;102375.44;5075288;28;20024;-63
2022/01/29 08:02:58;;;;;;;9.98;4.47;;;;;;;14.90;51.60;102372.72;5074723;28;20055;-63
2022/01/29 08:05:24;;;;;;;6.03;3.13;;;;;;;14.95;52.61;102373.22;5074839;28;20534;-63
2022/01/29 08:07:49;;;;;;;6.05;4.13;;;;;;;15.02;51.15;102366.34;5074879;28;20028;-62
2022/01/29 08:10:14;;;;;;;5.82;3.38;;;;;;;15.06;51.86;102373.25;5074953;28;20086;-63
2022/01/29 08:12:40;;;;;;;7.00;3.83;;;;;;;15.07;52.56;102372.28;5074657;28;20029;-62
2022/01/29 08:15:06;;;;;;;7.07;4.43;;;;;;;15.10;52.07;102366.63;5074889;28;20025;-63
2022/01/29 08:17:32;;;;;;;6.22;3.95;;;;;;;15.08;51.63;102363.19;5074656;28;20088;-62
2022/01/29 08:20:00;;;;;;;7.10;3.88;;;;;;;15.08;52.53;102357.78;5074971;28;20087;-63
2022/01/29 08:22:25;;;;;;;6.97;3.83;;;;;;;15.14;52.25;102366.28;5074858;28;20048;-63
2022/01/29 08:24:52;;;;;;;6.32;3.53;;;;;;;15.15;51.28;102369.84;5074392;28;20103;-63
2022/01/29 08:27:18;;;;;;;7.07;3.78;;;;;;;15.13;51.56;102353.75;5074432;28;20021;-63
2022/01/29 08:29:44;;;;;;;8.13;3.63;;;;;;;15.21;51.73;102358.56;5074448;28;20067;-63
2022/01/29 08:32:09;;;;;;;6.90;3.58;;;;;;;15.25;52.39;102349.22;5074284;28;20060;-63
2022/01/29 08:34:35;;;;;;;6.43;4.03;;;;;;;15.32;51.73;102357.69;5074173;28;20106;-63
2022/01/29 08:37:03;;;;;;;9.63;3.95;;;;;;;15.34;51.83;102353.88;5074213;28;20032;-63
2022/01/29 08:39:28;;;;;;;13.00;4.32;;;;;;;15.34;51.36;102340.38;5074164;28;20056;-63
2022/01/29 08:41:53;;;;;;;7.22;4.18;;;;;;;15.37;51.07;102350.94;5074204;28;20529;-63
2022/01/29 08:44:19;;;;;;;8.00;4.22;;;;;;;15.41;51.25;102347.00;5074124;28;20024;-62
2022/01/29 08:46:44;;;;;;;11.07;4.10;;;;;;;15.45;52.17;102339.53;5074088;28;20039;-63
2022/01/29 08:49:10;;;;;;;6.20;4.10;;;;;;;15.48;52.43;102331.19;5074299;28;20536;-62
2022/01/29 08:51:35;;;;;;;7.85;4.07;;;;;;;15.49;52.57;102343.75;5074112;28;20107;-63
2022/01/29 08:54:01;;;;;;;6.85;3.92;;;;;;;15.50;52.08;102327.41;5073973;28;20024;-63
2022/01/29 08:56:26;;;;;;;6.55;3.83;;;;;;;15.49;51.41;102341.91;5056254;28;20058;-63
2022/01/29 08:58:52;;;;;;;7.10;4.40;;;;;;;15.51;52.57;102331.81;5074017;28;20474;-63
2022/01/29 09:01:17;;;;;;;10.88;4.07;;;;;;;15.55;51.63;102322.47;5074081;28;20115;-63
2022/01/29 09:03:43;;;;;;;6.97;4.30;;;;;;;15.57;51.28;102317.81;5074013;28;20020;-63
2022/01/29 09:06:08;;;;;;;8.38;4.45;;;;;;;15.56;51.36;102321.50;5055982;28;20028;-63
2022/01/29 09:08:34;;;;;;;7.57;4.28;;;;;;;15.60;52.10;102317.59;5073608;28;20085;-63
2022/01/29 09:10:59;;;;;;;7.35;3.80;;;;;;;15.60;51.67;102319.41;5074011;28;20024;-63
2022/01/29 09:13:26;;;;;;;7.72;4.15;;;;;;;15.56;52.49;102313.41;5073744;28;20020;-63
2022/01/29 09:15:51;;;;;;;7.82;4.18;;;;;;;15.61;52.70;102324.69;5073092;28;20031;-63
2022/01/29 09:18:17;;;;;;;9.60;4.25;;;;;;;15.66;52.47;102318.91;5055678;28;20389;-63
2022/01/29 09:20:43;;;;;;;6.78;4.20;;;;;;;15.68;51.43;102312.41;5074131;28;20101;-63
2022/01/29 09:23:08;;;;;;;6.95;3.55;;;;;;;15.73;52.61;102314.72;5073868;28;20363;-63
2022/01/29 09:25:36;;;;;;;6.20;3.58;;;;;;;15.77;52.10;102312.63;5073634;28;20031;-63
2022/01/29 09:28:03;;;;;;;6.70;4.18;;;;;;;15.79;51.99;102299.84;5073481;28;20040;-63
2022/01/29 09:30:28;;;;;;;7.20;3.78;;;;;;;15.82;52.52;102299.59;5073422;28;20032;-63
2022/01/29 09:32:54;;;;;;;6.80;3.90;;;;;;;15.84;52.51;102293.06;5073704;28;20032;-63
2022/01/29 09:35:19;;;;;;;5.97;3.60;;;;;;;15.87;51.46;102286.56;5073151;28;20067;-63
2022/01/29 09:37:45;;;;;;;5.28;3.55;;;;;;;15.86;51.60;102274.00;5073549;28;20125;-63
2022/01/29 09:40:11;;;;;;;6.43;3.47;;;;;;;15.91;52.64;102282.63;5055521;28;20036;-63
2022/01/29 09:42:36;;;;;;;5.95;3.90;;;;;;;15.91;51.64;102285.31;5073751;28;20024;-63
2022/01/29 09:45:09;;;;;;;4.47;3.08;;;;;;;15.94;51.52;102282.38;5073737;28;20058;-63
2022/01/29 09:47:36;;;;;;;6.95;2.65;;;;;;;15.97;51.11;102287.53;5073796;28;20021;-63
2022/01/29 09:50:01;;;;;;;4.43;2.90;;;;;;;15.99;51.97;102282.84;5073809;28;20067;-63
2022/01/29 09:52:27;;;;;;;4.65;2.72;;;;;;;16.00;52.34;102298.03;5038917;28;20024;-62
2022/01/29 09:54:52;;;;;;;4.40;2.50;;;;;;;15.97;52.03;102298.34;5073325;28;20085;-62
2022/01/29 09:57:17;;;;;;;3.92;1.92;;;;;;;16.03;52.26;102311.31;5073345;28;20020;-63
2022/01/29 09:59:43;;;;;;;5.60;2.58;;;;;;;16.13;51.24;102314.97;5073277;28;20033;-63
2022/01/29 10:02:17;;;;;;;3.10;2.15;;;;;;;16.23;51.24;102305.09;5073259;28;20123;-63
2022/01/29 10:04:46;;;;;;;3.15;2.22;;;;;;;16.29;51.62;102312.69;5073423;28;20037;-63
2022/01/29 10:07:21;;;;;;;5.28;2.20;;;;;;;16.30;51.98;102315.25;5073620;28;20029;-63
2022/01/29 10:09:46;;;;;;;4.57;1.80;;;;;;;16.36;51.54;102315.75;5038841;28;20028;-63
2022/01/29 10:12:16;;;;;;;2.58;1.90;;;;;;;16.39;51.67;102320.91;5073362;28;20024;-63
2022/01/29 10:14:53;;;;;;;2.72;1.98;;;;;;;16.38;52.38;102311.91;5038821;28;20024;-63
2022/01/29 10:17:47;;;;;;;2.58;1.48;;;;;;;16.35;51.29;102304.06;5055581;28;20058;-63
2022/01/29 10:20:18;;;;;;;2.28;1.50;;;;;;;16.30;51.66;102301.72;5073623;28;20028;-63
2022/01/29 10:22:45;;;;;;;2.90;1.20;;;;;;;16.27;52.23;102295.75;5073525;28;20082;-63
2022/01/29 10:25:16;;;;;;;1.42;1.08;;;;;;;16.28;51.24;102292.03;5073610;28;20055;-63
2022/01/29 10:28:15;;;;;;;1.10;0.98;;;;;;;16.28;52.53;102292.03;5076511;28;20024;-63
2022/01/29 10:30:49;;;;;;;1.33;1.17;;;;;;;16.29;51.48;102307.28;5022655;28;20490;-63
2022/01/29 10:33:33;;;;;;;2.15;1.00;;;;;;;16.27;52.01;102306.56;5058994;28;20036;-63
2022/01/29 10:36:00;;;;;;;2.33;1.77;;;;;;;16.25;51.72;102297.69;5076529;28;20068;-63
2022/01/29 10:38:28;;;;;;;1.60;0.77;;;;;;;16.26;51.71;102307.53;5059100;28;20036;-63
2022/01/29 10:41:26;;;;;;;2.35;0.80;;;;;;;16.30;52.17;102300.91;5059085;28;20050;-64
2022/01/29 10:44:18;;;;;;;1.17;0.75;;;;;;;16.30;52.00;102295.50;5076465;28;20059;-63
2022/01/29 10:46:43;;;;;;;0.88;0.80;;;;;;;16.26;52.56;102297.59;5076596;28;20020;-63
2022/01/29 10:49:17;;;;;;;1.13;0.70;;;;;;;16.24;52.06;102291.47;5076659;28;20066;-63
2022/01/29 10:52:04;;;;;;;0.88;0.77;;;;;;;16.23;51.51;102286.16;5076338;28;20038;-63
2022/01/29 10:54:32;;;;;;;1.08;0.77;;;;;;;16.19;51.78;102287.44;5058693;28;20035;-63
2022/01/29 10:57:03;;;;;;;5.25;1.10;;;;;;;16.18;52.26;102280.28;5076334;28;20026;-63
2022/01/29 10:59:31;;;;;;;0.95;0.70;;;;;;;16.18;53.24;102264.06;5058813;28;20016;-63
2022/01/29 11:01:58;;;;;;;1.73;0.70;;;;;;;16.18;51.71;102259.53;5076480;28;20055;-63
2022/01/29 11:04:26;;;;;;;1.00;1.00;;;;;;;16.20;52.78;102267.50;5058487;28;20063;-63
2022/01/29 11:06:52;;;;;;;3.33;0.60;;;;;;;16.24;52.78;102250.03;5076426;28;20393;-63
2022/01/29 11:09:18;;;;;;;0.82;0.82;;;;;;;16.28;52.14;102248.78;5058754;28;20024;-63
2022/01/29 11:11:45;;;;;;;1.23;1.13;;;;;;;16.36;52.25;102237.31;5058327;28;20467;-63
2022/01/29 11:14:17;;;;;;;1.48;1.10;;;;;;;16.41;51.88;102235.06;5058474;28;20021;-63
2022/01/29 11:16:43;;;;;;;1.27;0.97;;;;;;;16.46;51.84;102228.28;5076201;28;20501;-63
2022/01/29 11:19:09;;;;;;;1.55;1.10;;;;;;;16.53;52.78;102224.06;5076310;28;20474;-63
2022/01/29 11:21:36;;;;;;;2.33;1.20;;;;;;;16.59;51.72;102218.13;5058202;28;20107;-63
2022/01/29 11:24:03;;;;;;;1.23;1.13;;;;;;;16.67;52.27;102206.63;5058260;28;20027;-63
2022/01/29 11:26:32;;;;;;;1.95;1.35;;;;;;;16.78;51.90;102209.22;5058007;28;20052;-63
2022/01/29 11:29:28;;;;;;;1.63;1.05;;;;;;;16.88;53.00;102210.16;5058111;28;20024;-63
2022/01/29 11:32:21;;;;;;;3.80;1.50;;;;;;;16.96;52.60;102209.47;5075767;28;20017;-63
2022/01/29 11:35:05;;;;;;;1.23;1.00;;;;;;;17.03;51.05;102191.69;5075613;28;20060;-63